sensor_id;sensor_type;location;lat;lon;timestamp;pressure;altitude;pressure_sealevel;temperature;humidity
55418;BME280;41287;47.554;7.844;2022-09-01T00:01:55;98080.66;;;23.42;55.08
55418;BME280;41287;47.554;7.844;2022-09-01T00:04:23;98077.91;;;23.42;54.96
55418;BME280;41287;47.554;7.844;2022-09-01T00:06:51;98071.66;;;23.42;54.94
55418;BME280;41287;47.554;7.844;2022-09-01T00:09:19;98073.25;;;23.43;54.92
55418;BME280;41287;47.554;7.844;2022-09-01T00:11:48;98074.03;;;23.43;55.33
55418;BME280;41287;47.554;7.844;2022-09-01T00:14:14;98075.19;;;23.42;55.05
55418;BME280;41287;47.554;7.844;2022-09-01T00:16:40;98079.50;;;23.43;54.95
55418;BME280;41287;47.554;7.844;2022-09-01T00:19:06;98073.59;;;23.41;55.22
55418;BME280;41287;47.554;7.844;2022-09-01T00:21:37;98075.19;;;23.42;54.96
55418;BME280;41287;47.554;7.844;2022-09-01T00:24:05;98064.59;;;23.41;55.03
55418;BME280;41287;47.554;7.844;2022-09-01T00:26:30;98069.72;;;23.42;55.10
55418;BME280;41287;47.554;7.844;2022-09-01T00:28:56;98061.50;;;23.42;55.08
55418;BME280;41287;47.554;7.844;2022-09-01T00:31:22;98066.97;;;23.42;55.37
55418;BME280;41287;47.554;7.844;2022-09-01T00:33:48;98051.34;;;23.43;55.10
55418;BME280;41287;47.554;7.844;2022-09-01T00:36:14;98061.50;;;23.42;54.91
55418;BME280;41287;47.554;7.844;2022-09-01T00:38:40;98056.81;;;23.43;54.90
55418;BME280;41287;47.554;7.844;2022-09-01T00:41:06;98056.03;;;23.42;55.33
55418;BME280;41287;47.554;7.844;2022-09-01T00:46:15;98050.56;;;23.42;55.07
55418;BME280;41287;47.554;7.844;2022-09-01T00:48:40;98059.56;;;23.43;55.30
55418;BME280;41287;47.554;7.844;2022-09-01T00:51:08;98053.31;;;23.42;55.00
55418;BME280;41287;47.554;7.844;2022-09-01T00:53:36;98047.84;;;23.42;55.27
55418;BME280;41287;47.554;7.844;2022-09-01T00:56:03;98066.97;;;23.42;55.11
55418;BME280;41287;47.554;7.844;2022-09-01T00:58:29;98057.63;;;23.43;55.38
55418;BME280;41287;47.554;7.844;2022-09-01T01:00:55;98045.88;;;23.43;55.37
55418;BME280;41287;47.554;7.844;2022-09-01T01:03:21;98053.31;;;23.42;55.15
55418;BME280;41287;47.554;7.844;2022-09-01T01:05:55;98057.63;;;23.43;54.93
55418;BME280;41287;47.554;7.844;2022-09-01T01:08:26;98054.09;;;23.43;55.09
55418;BME280;41287;47.554;7.844;2022-09-01T01:11:07;98063.09;;;23.43;55.03
55418;BME280;41287;47.554;7.844;2022-09-01T01:14:07;98064.25;;;23.42;55.07
55418;BME280;41287;47.554;7.844;2022-09-01T01:16:41;98061.16;;;23.44;54.95
55418;BME280;41287;47.554;7.844;2022-09-01T01:19:41;98063.09;;;23.43;55.45
55418;BME280;41287;47.554;7.844;2022-09-01T01:25:13;98060.34;;;23.43;55.03
55418;BME280;41287;47.554;7.844;2022-09-01T01:27:40;98051.34;;;23.43;55.26
55418;BME280;41287;47.554;7.844;2022-09-01T01:30:09;98048.63;;;23.43;55.46
55418;BME280;41287;47.554;7.844;2022-09-01T01:32:37;98057.63;;;23.43;55.28
55418;BME280;41287;47.554;7.844;2022-09-01T01:35:09;98048.63;;;23.43;55.23
55418;BME280;41287;47.554;7.844;2022-09-01T01:37:45;98055.69;;;23.44;55.36
55418;BME280;41287;47.554;7.844;2022-09-01T01:40:15;98063.88;;;23.44;55.10
55418;BME280;41287;47.554;7.844;2022-09-01T01:42:47;98067.41;;;23.44;55.32
55418;BME280;41287;47.554;7.844;2022-09-01T01:45:15;98072.88;;;23.44;55.02
55418;BME280;41287;47.554;7.844;2022-09-01T01:47:45;98064.69;;;23.44;54.95
55418;BME280;41287;47.554;7.844;2022-09-01T01:50:12;98070.16;;;23.44;55.37
55418;BME280;41287;47.554;7.844;2022-09-01T01:52:38;98073.66;;;23.45;55.37
55418;BME280;41287;47.554;7.844;2022-09-01T01:55:04;98067.41;;;23.44;55.33
55418;BME280;41287;47.554;7.844;2022-09-01T01:57:35;98070.16;;;23.44;55.15
55418;BME280;41287;47.554;7.844;2022-09-01T02:00:01;98073.66;;;23.45;55.31
55418;BME280;41287;47.554;7.844;2022-09-01T02:02:27;98074.81;;;23.44;55.33
55418;BME280;41287;47.554;7.844;2022-09-01T02:04:52;98081.09;;;23.44;55.37
55418;BME280;41287;47.554;7.844;2022-09-01T02:07:19;98083.03;;;23.44;55.50
55418;BME280;41287;47.554;7.844;2022-09-01T02:09:44;98083.81;;;23.44;55.45
55418;BME280;41287;47.554;7.844;2022-09-01T02:12:12;98079.13;;;23.45;55.31
55418;BME280;41287;47.554;7.844;2022-09-01T02:14:38;98085.41;;;23.45;55.23
55418;BME280;41287;47.554;7.844;2022-09-01T02:17:05;98083.47;;;23.46;55.16
55418;BME280;41287;47.554;7.844;2022-09-01T02:19:32;98079.94;;;23.45;55.02
55418;BME280;41287;47.554;7.844;2022-09-01T02:22:00;98081.09;;;23.44;55.05
55418;BME280;41287;47.554;7.844;2022-09-01T02:24:25;98081.09;;;23.44;55.26
55418;BME280;41287;47.554;7.844;2022-09-01T02:26:53;98081.50;;;23.46;55.04
55418;BME280;41287;47.554;7.844;2022-09-01T02:29:21;98069.00;;;23.45;55.12
55418;BME280;41287;47.554;7.844;2022-09-01T02:31:50;98070.16;;;23.44;55.51
55418;BME280;41287;47.554;7.844;2022-09-01T02:34:16;98069.00;;;23.45;55.12
55418;BME280;41287;47.554;7.844;2022-09-01T02:36:47;98068.19;;;23.45;55.78
55418;BME280;41287;47.554;7.844;2022-09-01T02:39:18;98081.88;;;23.45;55.10
55418;BME280;41287;47.554;7.844;2022-09-01T02:41:44;98078.78;;;23.46;55.45
55418;BME280;41287;47.554;7.844;2022-09-01T02:44:10;98079.13;;;23.45;55.08
55418;BME280;41287;47.554;7.844;2022-09-01T02:46:43;98075.25;;;23.46;55.50
55418;BME280;41287;47.554;7.844;2022-09-01T02:49:14;98079.13;;;23.45;55.39
55418;BME280;41287;47.554;7.844;2022-09-01T02:51:42;98067.03;;;23.46;55.09
55418;BME280;41287;47.554;7.844;2022-09-01T02:54:08;98069.78;;;23.46;55.10
55418;BME280;41287;47.554;7.844;2022-09-01T02:56:34;98074.47;;;23.45;55.06
55418;BME280;41287;47.554;7.844;2022-09-01T02:58:59;98071.72;;;23.45;55.36
55418;BME280;41287;47.554;7.844;2022-09-01T03:01:28;98074.47;;;23.45;55.03
55418;BME280;41287;47.554;7.844;2022-09-01T03:03:59;98071.72;;;23.45;55.24
55418;BME280;41287;47.554;7.844;2022-09-01T03:06:25;98076.03;;;23.46;55.25
55418;BME280;41287;47.554;7.844;2022-09-01T03:08:53;98067.03;;;23.46;55.22
55418;BME280;41287;47.554;7.844;2022-09-01T03:11:20;98055.31;;;23.45;55.24
55418;BME280;41287;47.554;7.844;2022-09-01T03:13:47;98063.53;;;23.45;55.46
55418;BME280;41287;47.554;7.844;2022-09-01T03:16:13;98062.72;;;23.45;55.19
55418;BME280;41287;47.554;7.844;2022-09-01T03:18:40;98067.03;;;23.46;55.47
55418;BME280;41287;47.554;7.844;2022-09-01T03:21:07;98069.78;;;23.46;55.52
55418;BME280;41287;47.554;7.844;2022-09-01T03:23:34;98071.72;;;23.45;55.36
55418;BME280;41287;47.554;7.844;2022-09-01T03:26:00;98061.56;;;23.46;55.37
55418;BME280;41287;47.554;7.844;2022-09-01T03:28:26;98069.00;;;23.45;55.12
55418;BME280;41287;47.554;7.844;2022-09-01T03:30:54;98072.53;;;23.46;55.24
55418;BME280;41287;47.554;7.844;2022-09-01T03:33:21;98077.19;;;23.45;55.32
55418;BME280;41287;47.554;7.844;2022-09-01T03:35:47;98074.09;;;23.47;55.09
55418;BME280;41287;47.554;7.844;2022-09-01T03:38:13;98070.94;;;23.45;55.42
55418;BME280;41287;47.554;7.844;2022-09-01T03:40:48;98067.03;;;23.46;55.46
55418;BME280;41287;47.554;7.844;2022-09-01T03:43:14;98069.00;;;23.45;55.38
55418;BME280;41287;47.554;7.844;2022-09-01T03:45:41;98067.03;;;23.46;55.50
55418;BME280;41287;47.554;7.844;2022-09-01T03:48:08;98063.97;;;23.47;55.52
55418;BME280;41287;47.554;7.844;2022-09-01T03:50:37;98064.75;;;23.48;55.22
55418;BME280;41287;47.554;7.844;2022-09-01T03:53:04;98061.28;;;23.51;55.31
55418;BME280;41287;47.554;7.844;2022-09-01T03:55:31;98057.03;;;23.53;55.50
55418;BME280;41287;47.554;7.844;2022-09-01T03:58:05;98062.13;;;23.55;56.08
55418;BME280;41287;47.554;7.844;2022-09-01T04:00:39;98064.94;;;23.58;57.09
55418;BME280;41287;47.554;7.844;2022-09-01T04:03:07;98059.91;;;23.60;57.67
55418;BME280;41287;47.554;7.844;2022-09-01T04:05:35;98055.25;;;23.65;58.05
55418;BME280;41287;47.554;7.844;2022-09-01T04:08:04;98055.25;;;23.65;59.05
55418;BME280;41287;47.554;7.844;2022-09-01T04:10:34;98055.28;;;23.68;60.10
55418;BME280;41287;47.554;7.844;2022-09-01T04:13:02;98061.19;;;23.70;60.74
55418;BME280;41287;47.554;7.844;2022-09-01T04:15:28;98062.41;;;23.73;61.77
55418;BME280;41287;47.554;7.844;2022-09-01T04:17:54;98059.31;;;23.74;62.83
55418;BME280;41287;47.554;7.844;2022-09-01T04:20:37;98058.56;;;23.77;63.51
55418;BME280;41287;47.554;7.844;2022-09-01T04:23:32;98053.16;;;23.81;65.11
55418;BME280;41287;47.554;7.844;2022-09-01T04:28:45;98063.00;;;23.85;66.80
55418;BME280;41287;47.554;7.844;2022-09-01T04:31:14;98054.03;;;23.88;66.08
55418;BME280;41287;47.554;7.844;2022-09-01T04:33:42;98059.56;;;23.92;66.48
55418;BME280;41287;47.554;7.844;2022-09-01T04:36:19;98054.91;;;23.92;68.12
55418;BME280;41287;47.554;7.844;2022-09-01T04:38:56;98055.31;;;23.94;67.62
55418;BME280;41287;47.554;7.844;2022-09-01T04:41:24;98059.25;;;23.97;67.87
55418;BME280;41287;47.554;7.844;2022-09-01T04:43:52;98058.88;;;23.98;68.66
55418;BME280;41287;47.554;7.844;2022-09-01T04:46:20;98046.78;;;23.99;68.85
55418;BME280;41287;47.554;7.844;2022-09-01T04:48:46;98058.91;;;24.02;69.66
55418;BME280;41287;47.554;7.844;2022-09-01T04:51:12;98051.03;;;23.97;64.98
55418;BME280;41287;47.554;7.844;2022-09-01T04:53:40;98055.00;;;23.73;61.73
55418;BME280;41287;47.554;7.844;2022-09-01T04:56:07;98050.50;;;23.61;59.38
55418;BME280;41287;47.554;7.844;2022-09-01T04:58:34;98051.16;;;23.51;58.03
55418;BME280;41287;47.554;7.844;2022-09-01T05:01:01;98050.53;;;23.39;56.81
55418;BME280;41287;47.554;7.844;2022-09-01T05:03:30;98060.13;;;23.29;55.25
55418;BME280;41287;47.554;7.844;2022-09-01T05:05:56;98070.00;;;23.14;54.92
55418;BME280;41287;47.554;7.844;2022-09-01T05:08:25;98059.22;;;22.99;55.31
55418;BME280;41287;47.554;7.844;2022-09-01T05:10:52;98054.75;;;22.91;54.87
55418;BME280;41287;47.554;7.844;2022-09-01T05:13:20;98053.47;;;22.84;54.36
55418;BME280;41287;47.554;7.844;2022-09-01T05:15:59;98058.38;;;22.75;53.75
55418;BME280;41287;47.554;7.844;2022-09-01T05:18:26;98061.03;;;22.72;53.34
55418;BME280;41287;47.554;7.844;2022-09-01T05:20:52;98068.56;;;22.59;53.10
55418;BME280;41287;47.554;7.844;2022-09-01T05:23:19;98062.09;;;22.48;53.71
55418;BME280;41287;47.554;7.844;2022-09-01T05:25:47;98061.94;;;22.41;53.12
55418;BME280;41287;47.554;7.844;2022-09-01T05:28:15;98065.69;;;22.33;53.13
55418;BME280;41287;47.554;7.844;2022-09-01T05:30:45;98057.28;;;22.22;53.46
55418;BME280;41287;47.554;7.844;2022-09-01T05:33:12;98061.06;;;22.18;53.22
55418;BME280;41287;47.554;7.844;2022-09-01T05:35:41;98067.59;;;22.13;53.33
55418;BME280;41287;47.554;7.844;2022-09-01T05:38:16;98069.75;;;22.04;53.67
55418;BME280;41287;47.554;7.844;2022-09-01T05:40:43;98062.97;;;21.98;53.24
55418;BME280;41287;47.554;7.844;2022-09-01T05:43:11;98071.84;;;21.95;53.40
55418;BME280;41287;47.554;7.844;2022-09-01T05:45:39;98073.69;;;21.91;53.48
55418;BME280;41287;47.554;7.844;2022-09-01T05:48:09;98076.00;;;21.89;53.45
55418;BME280;41287;47.554;7.844;2022-09-01T05:50:40;98079.44;;;21.86;53.54
55418;BME280;41287;47.554;7.844;2022-09-01T05:53:12;98076.25;;;21.84;53.40
55418;BME280;41287;47.554;7.844;2022-09-01T05:55:45;98076.88;;;21.77;53.69
55418;BME280;41287;47.554;7.844;2022-09-01T05:58:12;98064.75;;;21.75;53.76
55418;BME280;41287;47.554;7.844;2022-09-01T06:00:45;98075.94;;;21.70;54.15
55418;BME280;41287;47.554;7.844;2022-09-01T06:03:14;98073.56;;;21.68;54.26
55418;BME280;41287;47.554;7.844;2022-09-01T06:05:42;98075.06;;;21.65;53.98
55418;BME280;41287;47.554;7.844;2022-09-01T06:08:09;98073.84;;;21.63;54.14
55418;BME280;41287;47.554;7.844;2022-09-01T06:10:36;98076.13;;;21.61;54.22
55418;BME280;41287;47.554;7.844;2022-09-01T06:13:05;98078.75;;;21.57;54.23
55418;BME280;41287;47.554;7.844;2022-09-01T06:15:31;98083.00;;;21.55;54.13
55418;BME280;41287;47.554;7.844;2022-09-01T06:17:59;98083.34;;;21.53;54.34
55418;BME280;41287;47.554;7.844;2022-09-01T06:20:25;98084.84;;;21.51;54.15
55418;BME280;41287;47.554;7.844;2022-09-01T06:22:51;98097.66;;;21.50;54.34
55418;BME280;41287;47.554;7.844;2022-09-01T06:25:20;98092.94;;;21.47;54.15
55418;BME280;41287;47.554;7.844;2022-09-01T06:27:46;98099.53;;;21.46;54.52
55418;BME280;41287;47.554;7.844;2022-09-01T06:30:16;98098.75;;;21.46;54.51
55418;BME280;41287;47.554;7.844;2022-09-01T06:32:45;98097.50;;;21.43;54.58
55418;BME280;41287;47.554;7.844;2022-09-01T06:35:12;98102.53;;;21.41;54.36
55418;BME280;41287;47.554;7.844;2022-09-01T06:37:41;98103.66;;;21.40;54.29
55418;BME280;41287;47.554;7.844;2022-09-01T06:40:09;98101.28;;;21.39;54.11
55418;BME280;41287;47.554;7.844;2022-09-01T06:42:44;98097.59;;;21.31;54.71
55418;BME280;41287;47.554;7.844;2022-09-01T06:45:12;98095.03;;;21.38;54.29
55418;BME280;41287;47.554;7.844;2022-09-01T06:47:40;98108.31;;;21.40;54.62
55418;BME280;41287;47.554;7.844;2022-09-01T06:50:08;98103.41;;;21.45;54.88
55418;BME280;41287;47.554;7.844;2022-09-01T06:52:33;98099.38;;;21.55;54.81
55418;BME280;41287;47.554;7.844;2022-09-01T06:54:58;98098.41;;;21.63;54.67
55418;BME280;41287;47.554;7.844;2022-09-01T06:57:24;98102.84;;;21.71;54.89
55418;BME280;41287;47.554;7.844;2022-09-01T06:59:52;98101.44;;;21.77;55.15
55418;BME280;41287;47.554;7.844;2022-09-01T07:02:18;98097.72;;;21.85;55.07
55418;BME280;41287;47.554;7.844;2022-09-01T07:04:44;98101.78;;;21.91;54.97
55418;BME280;41287;47.554;7.844;2022-09-01T07:07:11;98106.22;;;21.96;54.81
55418;BME280;41287;47.554;7.844;2022-09-01T07:09:37;98097.75;;;22.01;54.77
55418;BME280;41287;47.554;7.844;2022-09-01T07:12:03;98097.47;;;22.06;54.75
55418;BME280;41287;47.554;7.844;2022-09-01T07:14:29;98098.69;;;22.09;54.75
55418;BME280;41287;47.554;7.844;2022-09-01T07:16:55;98109.31;;;22.14;54.72
55418;BME280;41287;47.554;7.844;2022-09-01T07:19:22;98106.69;;;22.17;54.91
55418;BME280;41287;47.554;7.844;2022-09-01T07:21:52;98109.03;;;22.19;54.62
55418;BME280;41287;47.554;7.844;2022-09-01T07:24:18;98115.75;;;22.21;54.87
55418;BME280;41287;47.554;7.844;2022-09-01T07:26:45;98113.44;;;22.23;54.61
55418;BME280;41287;47.554;7.844;2022-09-01T07:29:14;98110.34;;;22.25;54.54
55418;BME280;41287;47.554;7.844;2022-09-01T07:31:40;98114.31;;;22.27;54.66
55418;BME280;41287;47.554;7.844;2022-09-01T07:34:11;98106.91;;;22.28;54.55
55418;BME280;41287;47.554;7.844;2022-09-01T07:36:41;98114.41;;;22.31;54.70
55418;BME280;41287;47.554;7.844;2022-09-01T07:39:10;98116.75;;;22.32;54.30
55418;BME280;41287;47.554;7.844;2022-09-01T07:41:38;98118.34;;;22.33;54.73
55418;BME280;41287;47.554;7.844;2022-09-01T07:44:04;98121.50;;;22.35;54.48
55418;BME280;41287;47.554;7.844;2022-09-01T07:46:30;98129.34;;;22.37;54.33
55418;BME280;41287;47.554;7.844;2022-09-01T07:48:57;98124.69;;;22.37;54.76
55418;BME280;41287;47.554;7.844;2022-09-01T07:51:24;98137.97;;;22.39;54.75
55418;BME280;41287;47.554;7.844;2022-09-01T07:53:51;98126.69;;;22.40;54.77
55418;BME280;41287;47.554;7.844;2022-09-01T07:56:18;98127.47;;;22.41;54.48
55418;BME280;41287;47.554;7.844;2022-09-01T07:58:46;98125.53;;;22.41;54.45
55418;BME280;41287;47.554;7.844;2022-09-01T08:01:18;98126.78;;;22.44;54.74
55418;BME280;41287;47.554;7.844;2022-09-01T08:03:48;98122.88;;;22.45;54.41
55418;BME280;41287;47.554;7.844;2022-09-01T08:06:16;98122.53;;;22.46;54.75
55418;BME280;41287;47.554;7.844;2022-09-01T08:08:47;98120.59;;;22.47;54.40
55418;BME280;41287;47.554;7.844;2022-09-01T08:11:18;98115.91;;;22.48;54.44
55418;BME280;41287;47.554;7.844;2022-09-01T08:13:44;98115.91;;;22.48;54.52
55418;BME280;41287;47.554;7.844;2022-09-01T08:16:11;98124.53;;;22.50;54.76
55418;BME280;41287;47.554;7.844;2022-09-01T08:18:38;98126.13;;;22.51;54.39
55418;BME280;41287;47.554;7.844;2022-09-01T08:21:09;98125.00;;;22.52;54.62
55418;BME280;41287;47.554;7.844;2022-09-01T08:23:34;98123.03;;;22.52;54.61
55418;BME280;41287;47.554;7.844;2022-09-01T08:26:11;98125.75;;;22.52;54.48
55418;BME280;41287;47.554;7.844;2022-09-01T08:28:36;98119.94;;;22.54;54.79
55418;BME280;41287;47.554;7.844;2022-09-01T08:31:09;98114.47;;;22.54;54.73
55418;BME280;41287;47.554;7.844;2022-09-01T08:33:36;98114.13;;;22.55;54.72
55418;BME280;41287;47.554;7.844;2022-09-01T08:36:02;98121.97;;;22.57;54.47
55418;BME280;41287;47.554;7.844;2022-09-01T08:38:27;98115.72;;;22.56;54.50
55418;BME280;41287;47.554;7.844;2022-09-01T08:40:54;98120.03;;;22.57;54.53
55418;BME280;41287;47.554;7.844;2022-09-01T08:43:24;98109.91;;;22.58;54.88
55418;BME280;41287;47.554;7.844;2022-09-01T08:45:52;98114.97;;;22.59;54.53
55418;BME280;41287;47.554;7.844;2022-09-01T08:48:25;98113.44;;;22.58;54.71
55418;BME280;41287;47.554;7.844;2022-09-01T08:50:55;98118.50;;;22.60;54.83
55418;BME280;41287;47.554;7.844;2022-09-01T08:53:31;98105.63;;;22.60;54.55
55418;BME280;41287;47.554;7.844;2022-09-01T08:55:59;98106.44;;;22.61;54.59
55418;BME280;41287;47.554;7.844;2022-09-01T08:58:27;98108.03;;;22.62;54.90
55418;BME280;41287;47.554;7.844;2022-09-01T09:00:58;98111.53;;;22.62;54.54
55418;BME280;41287;47.554;7.844;2022-09-01T09:03:35;98108.81;;;22.62;54.49
55418;BME280;41287;47.554;7.844;2022-09-01T09:06:08;98113.91;;;22.64;54.92
55418;BME280;41287;47.554;7.844;2022-09-01T09:11:45;98106.53;;;22.64;54.87
55418;BME280;41287;47.554;7.844;2022-09-01T09:16:59;98107.38;;;22.68;54.45
55418;BME280;41287;47.554;7.844;2022-09-01T09:19:27;98111.25;;;22.67;54.79
55418;BME280;41287;47.554;7.844;2022-09-01T09:21:55;98103.84;;;22.68;54.92
55418;BME280;41287;47.554;7.844;2022-09-01T09:27:19;98106.13;;;22.66;54.98
55418;BME280;41287;47.554;7.844;2022-09-01T09:29:48;98109.75;;;22.70;54.89
55418;BME280;41287;47.554;7.844;2022-09-01T09:32:15;98108.97;;;22.69;54.85
55418;BME280;41287;47.554;7.844;2022-09-01T09:34:41;98103.50;;;22.69;54.89
55418;BME280;41287;47.554;7.844;2022-09-01T09:37:28;98102.69;;;22.69;54.87
55418;BME280;41287;47.554;7.844;2022-09-01T09:42:35;98105.06;;;22.70;54.75
55418;BME280;41287;47.554;7.844;2022-09-01T09:45:05;98092.22;;;22.71;54.78
55418;BME280;41287;47.554;7.844;2022-09-01T09:47:41;98087.53;;;22.71;54.86
55418;BME280;41287;47.554;7.844;2022-09-01T09:50:16;98086.75;;;22.71;54.81
55418;BME280;41287;47.554;7.844;2022-09-01T09:52:41;98078.16;;;22.72;54.92
55418;BME280;41287;47.554;7.844;2022-09-01T09:57:49;98073.19;;;22.74;54.71
55418;BME280;41287;47.554;7.844;2022-09-01T10:00:37;98069.66;;;22.74;55.02
55418;BME280;41287;47.554;7.844;2022-09-01T10:03:07;98085.69;;;22.75;55.04
55418;BME280;41287;47.554;7.844;2022-09-01T10:05:38;98086.84;;;22.74;54.80
55418;BME280;41287;47.554;7.844;2022-09-01T10:08:08;98090.81;;;22.77;54.74
55418;BME280;41287;47.554;7.844;2022-09-01T10:13:03;98071.31;;;22.78;54.89
55418;BME280;41287;47.554;7.844;2022-09-01T10:15:31;98073.63;;;22.76;54.89
55418;BME280;41287;47.554;7.844;2022-09-01T10:18:03;98073.25;;;22.78;54.91
55418;BME280;41287;47.554;7.844;2022-09-01T10:20:33;98074.06;;;22.78;55.10
55418;BME280;41287;47.554;7.844;2022-09-01T10:23:03;98066.66;;;22.79;54.90
55418;BME280;41287;47.554;7.844;2022-09-01T10:25:32;98061.94;;;22.79;54.96
55418;BME280;41287;47.554;7.844;2022-09-01T10:28:11;98058.47;;;22.79;54.73
55418;BME280;41287;47.554;7.844;2022-09-01T10:30:42;98063.53;;;22.80;55.09
55418;BME280;41287;47.554;7.844;2022-09-01T10:33:09;98056.13;;;22.81;54.95
55418;BME280;41287;47.554;7.844;2022-09-01T10:35:40;98058.88;;;22.81;54.75
55418;BME280;41287;47.554;7.844;2022-09-01T10:38:16;98058.88;;;22.81;54.58
55418;BME280;41287;47.554;7.844;2022-09-01T10:40:45;98051.47;;;22.81;54.92
55418;BME280;41287;47.554;7.844;2022-09-01T10:43:31;98050.66;;;22.81;54.69
55418;BME280;41287;47.554;7.844;2022-09-01T10:45:58;98050.31;;;22.82;54.59
55418;BME280;41287;47.554;7.844;2022-09-01T10:48:28;98039.38;;;22.82;55.01
55418;BME280;41287;47.554;7.844;2022-09-01T11:09:06;98046.06;;;22.85;54.91
55418;BME280;41287;47.554;7.844;2022-09-01T11:14:22;98036.69;;;22.86;55.00
55418;BME280;41287;47.554;7.844;2022-09-01T11:17:10;98044.13;;;22.86;54.85
55418;BME280;41287;47.554;7.844;2022-09-01T11:19:40;98035.56;;;22.87;54.81
55418;BME280;41287;47.554;7.844;2022-09-01T11:27:12;98032.03;;;22.87;55.16
55418;BME280;41287;47.554;7.844;2022-09-01T11:29:58;98032.47;;;22.89;55.04
55418;BME280;41287;47.554;7.844;2022-09-01T11:32:31;98039.06;;;22.88;54.70
55418;BME280;41287;47.554;7.844;2022-09-01T11:35:02;98024.28;;;22.89;55.08
55418;BME280;41287;47.554;7.844;2022-09-01T11:37:29;98032.47;;;22.89;55.18
55418;BME280;41287;47.554;7.844;2022-09-01T11:39:58;98027.00;;;22.89;55.10
55418;BME280;41287;47.554;7.844;2022-09-01T11:42:30;98024.28;;;22.89;54.79
55418;BME280;41287;47.554;7.844;2022-09-01T11:45:06;98025.84;;;22.90;54.65
55418;BME280;41287;47.554;7.844;2022-09-01T11:47:40;98012.97;;;22.90;55.03
55418;BME280;41287;47.554;7.844;2022-09-01T11:52:35;98027.44;;;22.91;54.95
55418;BME280;41287;47.554;7.844;2022-09-01T11:55:04;98033.69;;;22.91;54.71
55418;BME280;41287;47.554;7.844;2022-09-01T11:57:35;98025.50;;;22.91;54.79
55418;BME280;41287;47.554;7.844;2022-09-01T12:00:07;98015.34;;;22.92;54.85
55418;BME280;41287;47.554;7.844;2022-09-01T12:02:35;98015.34;;;22.92;54.99
55418;BME280;41287;47.554;7.844;2022-09-01T12:05:03;98016.16;;;22.92;54.67
55418;BME280;41287;47.554;7.844;2022-09-01T12:07:48;98011.47;;;22.93;55.17
55418;BME280;41287;47.554;7.844;2022-09-01T12:10:17;98018.50;;;22.94;54.77
55418;BME280;41287;47.554;7.844;2022-09-01T12:12:44;98009.50;;;22.93;55.01
55418;BME280;41287;47.554;7.844;2022-09-01T12:17:42;98012.25;;;22.93;54.80
55418;BME280;41287;47.554;7.844;2022-09-01T12:20:30;98014.22;;;22.93;55.14
55418;BME280;41287;47.554;7.844;2022-09-01T12:22:59;98012.69;;;22.95;54.58
55418;BME280;41287;47.554;7.844;2022-09-01T12:25:31;98013.03;;;22.94;54.66
55418;BME280;41287;47.554;7.844;2022-09-01T12:28:03;98015.75;;;22.94;55.08
55418;BME280;41287;47.554;7.844;2022-09-01T12:30:30;98014.63;;;22.95;54.83
55418;BME280;41287;47.554;7.844;2022-09-01T12:33:01;98012.69;;;22.95;54.87
55418;BME280;41287;47.554;7.844;2022-09-01T12:35:27;98010.72;;;22.96;54.96
55418;BME280;41287;47.554;7.844;2022-09-01T12:40:55;98004.47;;;22.95;55.05
55418;BME280;41287;47.554;7.844;2022-09-01T12:43:34;98006.41;;;22.95;55.04
55418;BME280;41287;47.554;7.844;2022-09-01T12:46:00;98005.28;;;22.96;55.13
55418;BME280;41287;47.554;7.844;2022-09-01T12:48:29;98008.00;;;22.96;54.95
55418;BME280;41287;47.554;7.844;2022-09-01T12:50:59;98009.59;;;22.97;54.88
55418;BME280;41287;47.554;7.844;2022-09-01T12:53:27;98003.31;;;22.96;54.74
55418;BME280;41287;47.554;7.844;2022-09-01T12:56:32;98005.28;;;22.96;55.03
55418;BME280;41287;47.554;7.844;2022-09-01T13:01:32;98001.03;;;22.98;54.82
55418;BME280;41287;47.554;7.844;2022-09-01T13:04:22;97990.81;;;22.95;55.14
55418;BME280;41287;47.554;7.844;2022-09-01T13:06:52;98001.03;;;22.98;55.10
55418;BME280;41287;47.554;7.844;2022-09-01T13:09:19;97997.50;;;22.98;54.95
55418;BME280;41287;47.554;7.844;2022-09-01T13:11:46;97998.28;;;22.98;55.09
55418;BME280;41287;47.554;7.844;2022-09-01T13:14:13;97984.63;;;22.98;54.75
55418;BME280;41287;47.554;7.844;2022-09-01T13:16:39;97996.34;;;22.99;55.18
55418;BME280;41287;47.554;7.844;2022-09-01T13:19:04;97983.47;;;22.99;54.93
55418;BME280;41287;47.554;7.844;2022-09-01T13:21:32;97990.50;;;23.00;55.04
55418;BME280;41287;47.554;7.844;2022-09-01T13:23:59;97980.38;;;23.01;54.86
55418;BME280;41287;47.554;7.844;2022-09-01T13:26:25;97985.81;;;23.01;55.09
55418;BME280;41287;47.554;7.844;2022-09-01T13:28:50;97988.56;;;23.01;55.26
55418;BME280;41287;47.554;7.844;2022-09-01T13:31:17;97977.28;;;23.02;55.11
55418;BME280;41287;47.554;7.844;2022-09-01T13:33:42;97965.53;;;23.02;55.23
55418;BME280;41287;47.554;7.844;2022-09-01T13:36:07;97962.81;;;23.02;55.04
55418;BME280;41287;47.554;7.844;2022-09-01T13:38:33;97976.47;;;23.02;55.49
55418;BME280;41287;47.554;7.844;2022-09-01T13:41:00;97969.88;;;23.03;55.29
55418;BME280;41287;47.554;7.844;2022-09-01T13:43:27;97958.94;;;23.03;55.20
55418;BME280;41287;47.554;7.844;2022-09-01T13:45:53;97963.25;;;23.04;55.33
55418;BME280;41287;47.554;7.844;2022-09-01T13:48:20;97961.31;;;23.04;55.20
55418;BME280;41287;47.554;7.844;2022-09-01T13:50:47;97961.66;;;23.03;55.24
55418;BME280;41287;47.554;7.844;2022-09-01T13:53:14;97950.75;;;23.03;55.48
55418;BME280;41287;47.554;7.844;2022-09-01T13:55:40;97952.31;;;23.04;55.33
55418;BME280;41287;47.554;7.844;2022-09-01T13:58:06;97948.78;;;23.03;55.17
55418;BME280;41287;47.554;7.844;2022-09-01T14:00:35;97952.31;;;23.04;55.13
55418;BME280;41287;47.554;7.844;2022-09-01T14:03:04;97945.28;;;23.03;54.91
55418;BME280;41287;47.554;7.844;2022-09-01T14:05:36;97951.53;;;23.03;55.09
55418;BME280;41287;47.554;7.844;2022-09-01T14:08:04;97949.59;;;23.04;54.93
55418;BME280;41287;47.554;7.844;2022-09-01T14:10:30;97938.66;;;23.04;55.29
55418;BME280;41287;47.554;7.844;2022-09-01T14:12:58;97948.44;;;23.05;54.96